createdAt,value
2018-04-08T00:02:21.023Z,6.23
2018-04-08T00:04:48.756Z,5.70
2018-04-08T00:07:17.086Z,4.90
2018-04-08T00:09:44.603Z,6.53
2018-04-08T00:12:12.090Z,5.00
2018-04-08T00:14:39.671Z,5.20
2018-04-08T00:17:07.151Z,5.47
2018-04-08T00:19:34.662Z,5.50
2018-04-08T00:22:02.136Z,5.90
2018-04-08T00:24:29.732Z,5.17
2018-04-08T00:26:57.254Z,5.70
2018-04-08T00:29:24.716Z,6.20
2018-04-08T00:31:52.190Z,4.90
2018-04-08T00:36:51.489Z,5.37
2018-04-08T00:39:19.000Z,5.30
2018-04-08T00:41:46.579Z,5.70
2018-04-08T00:44:14.091Z,5.83
2018-04-08T00:46:41.596Z,5.00
2018-04-08T00:49:09.107Z,6.10
2018-04-08T00:51:36.632Z,5.13
2018-04-08T00:54:16.079Z,4.80
2018-04-08T00:56:43.556Z,4.40
2018-04-08T00:59:11.827Z,5.83
2018-04-08T01:01:39.548Z,4.50
2018-04-08T01:04:07.059Z,4.83
2018-04-08T01:06:35.303Z,5.70
2018-04-08T01:09:02.793Z,5.73
2018-04-08T01:11:31.036Z,6.10
2018-04-08T01:13:58.604Z,5.73
2018-04-08T01:16:26.051Z,5.43
2018-04-08T01:18:53.534Z,6.03
2018-04-08T01:21:21.170Z,7.67
2018-04-08T01:23:48.708Z,5.47
2018-04-08T01:26:16.268Z,7.03
2018-04-08T01:28:43.820Z,5.70
2018-04-08T01:31:11.424Z,5.73
2018-04-08T01:33:38.905Z,6.50
2018-04-08T01:36:06.460Z,5.57
2018-04-08T01:38:34.779Z,6.07
2018-04-08T01:41:02.352Z,6.20
2018-04-08T01:43:29.867Z,6.47
2018-04-08T01:45:57.403Z,6.97
2018-04-08T01:48:24.869Z,6.70
2018-04-08T01:50:53.500Z,6.43
2018-04-08T01:53:21.576Z,7.00
2018-04-08T01:55:49.091Z,5.50
2018-04-08T01:58:16.580Z,7.10
2018-04-08T02:00:44.068Z,6.53
2018-04-08T02:03:11.529Z,6.73
2018-04-08T02:05:40.569Z,7.30
2018-04-08T02:08:08.052Z,7.57
2018-04-08T02:10:36.079Z,6.80
2018-04-08T02:13:03.566Z,7.23
2018-04-08T02:15:31.060Z,6.83
2018-04-08T02:17:58.562Z,6.80
2018-04-08T02:20:26.035Z,7.17
2018-04-08T02:22:53.520Z,7.30
2018-04-08T02:25:21.026Z,8.30
2018-04-08T02:27:48.512Z,7.57
2018-04-08T02:30:16.052Z,7.77
2018-04-08T02:32:43.605Z,7.40
2018-04-08T02:35:11.268Z,7.80
2018-04-08T02:37:38.820Z,8.10
2018-04-08T02:40:06.297Z,7.00
2018-04-08T02:42:33.762Z,7.53
2018-04-08T02:45:01.295Z,7.17
2018-04-08T02:47:29.547Z,7.10
2018-04-08T02:49:57.551Z,7.53
2018-04-08T02:52:25.071Z,7.53
2018-04-08T02:54:52.628Z,7.83
2018-04-08T02:57:20.140Z,7.80
2018-04-08T02:59:48.411Z,7.13
2018-04-08T03:02:15.881Z,7.53
2018-04-08T03:04:43.373Z,7.10
2018-04-08T03:07:10.938Z,7.50
2018-04-08T03:09:38.423Z,7.70
2018-04-08T03:12:05.997Z,7.50
2018-04-08T03:14:33.500Z,6.80
2018-04-08T03:17:01.829Z,7.80
2018-04-08T03:19:29.275Z,7.03
2018-04-08T03:21:56.763Z,7.67
2018-04-08T03:24:24.252Z,8.10
2018-04-08T03:26:51.747Z,7.87
2018-04-08T03:29:19.216Z,7.90
2018-04-08T03:31:46.750Z,7.17
2018-04-08T03:34:14.241Z,7.53
2018-04-08T03:36:41.905Z,7.87
2018-04-08T03:39:09.349Z,7.57
2018-04-08T03:41:36.838Z,7.67
2018-04-08T03:44:05.808Z,7.97
2018-04-08T03:46:38.268Z,7.30
2018-04-08T03:49:05.827Z,7.10
2018-04-08T03:51:33.358Z,8.13
2018-04-08T03:54:00.839Z,8.20
2018-04-08T03:56:28.335Z,8.00
2018-04-08T03:58:55.855Z,7.50
2018-04-08T04:01:23.369Z,7.87
2018-04-08T04:03:50.860Z,7.60
2018-04-08T04:06:18.348Z,6.70
2018-04-08T04:08:45.858Z,6.80
2018-04-08T04:11:13.351Z,7.57
2018-04-08T04:13:40.861Z,7.53
2018-04-08T04:16:08.319Z,6.80
2018-04-08T04:18:47.877Z,7.90
2018-04-08T04:21:27.234Z,6.57
2018-04-08T04:24:06.395Z,8.50
2018-04-08T04:26:34.708Z,7.10
2018-04-08T04:29:02.243Z,6.37
2018-04-08T04:31:29.696Z,8.13
2018-04-08T04:33:57.489Z,7.83
2018-04-08T04:36:24.965Z,7.63
2018-04-08T04:38:52.448Z,7.40
2018-04-08T04:41:19.969Z,8.00
2018-04-08T04:43:47.503Z,7.23
2018-04-08T04:46:15.010Z,7.70
2018-04-08T04:48:42.484Z,6.47
2018-04-08T04:51:10.798Z,7.07
2018-04-08T04:53:38.296Z,7.60
2018-04-08T04:56:05.828Z,9.90
2018-04-08T04:58:33.368Z,7.67
2018-04-08T05:01:00.905Z,7.43
2018-04-08T05:03:29.160Z,9.27
2018-04-08T05:05:56.680Z,7.83
2018-04-08T05:08:24.175Z,9.07
2018-04-08T05:10:51.696Z,8.03
2018-04-08T05:13:19.212Z,6.87
2018-04-08T05:15:47.595Z,8.27
2018-04-08T05:18:15.144Z,8.43
2018-04-08T05:20:42.695Z,8.67
2018-04-08T05:23:10.990Z,7.77
2018-04-08T05:25:38.450Z,8.60
2018-04-08T05:28:05.942Z,8.10
2018-04-08T05:30:33.460Z,7.93
2018-04-08T05:33:01.710Z,8.23
2018-04-08T05:35:29.181Z,7.30
2018-04-08T05:37:56.656Z,7.20
2018-04-08T05:40:24.143Z,7.70
2018-04-08T05:42:52.405Z,8.70
2018-04-08T05:45:19.856Z,8.23
2018-04-08T05:47:47.334Z,7.87
2018-04-08T05:50:14.824Z,7.57
2018-04-08T05:52:42.335Z,7.50
2018-04-08T05:55:09.804Z,8.47
2018-04-08T05:57:37.306Z,8.40
2018-04-08T06:00:05.531Z,9.00
2018-04-08T06:02:33.045Z,8.47
2018-04-08T06:05:00.532Z,8.60
2018-04-08T06:07:28.060Z,8.73
2018-04-08T06:09:56.146Z,8.20
2018-04-08T06:12:23.657Z,8.50
2018-04-08T06:14:51.123Z,7.20
2018-04-08T06:17:20.096Z,7.80
2018-04-08T06:19:47.621Z,8.20
2018-04-08T06:22:15.106Z,8.50
2018-04-08T06:24:43.247Z,8.90
2018-04-08T06:27:10.792Z,9.30
2018-04-08T06:29:38.289Z,7.73
2018-04-08T06:32:05.752Z,9.73
2018-04-08T06:34:33.280Z,8.70
2018-04-08T06:37:00.879Z,7.80
2018-04-08T06:39:28.388Z,7.93
2018-04-08T06:41:55.908Z,8.27
2018-04-08T06:44:23.443Z,8.43
2018-04-08T06:46:50.924Z,8.40
2018-04-08T06:49:18.476Z,7.23
2018-04-08T06:51:45.980Z,9.07
2018-04-08T06:54:13.443Z,7.80
2018-04-08T06:56:40.999Z,7.53
2018-04-08T06:59:08.536Z,8.27
2018-04-08T07:01:36.016Z,7.30
2018-04-08T07:04:03.504Z,8.20
2018-04-08T07:06:31.011Z,7.60
2018-04-08T07:08:58.484Z,8.30
2018-04-08T07:11:26.558Z,7.50
2018-04-08T07:13:54.015Z,8.43
2018-04-08T07:16:21.512Z,8.53
2018-04-08T07:18:49.644Z,7.57
2018-04-08T07:21:17.217Z,7.47
2018-04-08T07:23:44.766Z,7.10
2018-04-08T07:26:12.621Z,8.50
2018-04-08T07:28:40.155Z,8.57
2018-04-08T07:31:07.688Z,9.00
2018-04-08T07:33:35.221Z,8.37
2018-04-08T07:36:02.777Z,7.73
2018-04-08T07:38:30.273Z,9.30
2018-04-08T07:40:57.818Z,7.60
2018-04-08T07:43:26.122Z,9.70
2018-04-08T07:45:53.657Z,8.70
2018-04-08T07:48:21.212Z,9.10
2018-04-08T07:50:48.746Z,8.53
2018-04-08T07:53:16.247Z,8.47
2018-04-08T07:55:43.828Z,8.60
2018-04-08T07:58:11.275Z,8.60
2018-04-08T08:00:38.944Z,8.40
2018-04-08T08:03:06.532Z,8.63
2018-04-08T08:05:34.051Z,7.47
2018-04-08T08:08:01.631Z,7.43
2018-04-08T08:10:29.163Z,7.70
2018-04-08T08:12:56.684Z,8.77
2018-04-08T08:15:24.144Z,7.77
2018-04-08T08:17:51.680Z,9.40
2018-04-08T08:20:19.184Z,9.80
2018-04-08T08:22:46.671Z,10.20
2018-04-08T08:25:14.128Z,9.07
2018-04-08T08:27:46.253Z,9.30
2018-04-08T08:30:14.697Z,9.43
2018-04-08T08:32:42.153Z,10.40
2018-04-08T08:35:09.616Z,9.70
2018-04-08T08:37:37.232Z,8.90
2018-04-08T08:40:04.728Z,8.43
2018-04-08T08:42:32.240Z,8.27
2018-04-08T08:44:59.707Z,8.77
2018-04-08T08:47:27.177Z,7.90
2018-04-08T08:49:55.391Z,9.83
2018-04-08T08:52:22.873Z,9.57
2018-04-08T08:54:50.454Z,8.43
2018-04-08T08:57:17.881Z,9.30
2018-04-08T08:59:45.351Z,9.03
2018-04-08T09:02:12.856Z,8.40
2018-04-08T09:04:40.422Z,9.63
2018-04-08T09:07:07.867Z,8.87
2018-04-08T09:09:35.406Z,10.17
2018-04-08T09:12:02.858Z,7.00
2018-04-08T09:14:30.328Z,10.17
2018-04-08T09:16:57.852Z,9.70
2018-04-08T09:19:30.882Z,8.93
2018-04-08T09:25:08.988Z,9.80
2018-04-08T09:27:36.482Z,10.30
2018-04-08T09:30:03.992Z,9.73
2018-04-08T09:32:31.469Z,10.10
2018-04-08T09:34:58.947Z,11.20
2018-04-08T09:37:26.414Z,9.40
2018-04-08T09:39:54.642Z,9.70
2018-04-08T09:42:22.127Z,10.10
2018-04-08T09:44:49.665Z,10.80
2018-04-08T09:47:17.144Z,9.80
2018-04-08T09:49:44.624Z,11.47
2018-04-08T09:52:12.152Z,10.73
2018-04-08T09:54:39.698Z,10.23
2018-04-08T09:57:07.173Z,11.60
2018-04-08T09:59:34.721Z,11.30
2018-04-08T10:05:13.356Z,11.90
2018-04-08T10:07:40.809Z,10.00
2018-04-08T10:10:08.372Z,11.77
2018-04-08T10:12:35.899Z,11.97
2018-04-08T10:15:03.591Z,11.20
2018-04-08T10:17:31.093Z,10.73
2018-04-08T10:19:58.668Z,12.20
2018-04-08T10:22:27.018Z,12.07
2018-04-08T10:24:55.288Z,12.40
2018-04-08T10:27:22.769Z,11.57
2018-04-08T10:29:50.265Z,12.23
2018-04-08T10:32:17.755Z,12.47
2018-04-08T10:34:46.084Z,11.70
2018-04-08T10:37:13.548Z,10.67
2018-04-08T10:39:41.347Z,11.93
2018-04-08T10:42:09.864Z,11.73
2018-04-08T10:44:45.736Z,10.70
2018-04-08T10:47:13.237Z,12.07
2018-04-08T10:49:41.544Z,11.30
2018-04-08T10:52:09.071Z,10.73
2018-04-08T10:54:36.699Z,10.30
2018-04-08T10:57:04.215Z,11.33
2018-04-08T10:59:31.748Z,12.30
2018-04-08T11:01:59.258Z,11.10
2018-04-08T11:04:25.487Z,11.67
2018-04-08T11:06:51.835Z,11.30
2018-04-08T11:09:18.138Z,11.07
2018-04-08T11:11:53.362Z,11.90
2018-04-08T11:14:24.933Z,11.03
2018-04-08T11:16:51.133Z,12.20
2018-04-08T11:19:17.354Z,11.80
2018-04-08T11:21:44.357Z,10.90
2018-04-08T11:24:11.038Z,10.80
2018-04-08T11:26:37.260Z,10.00
2018-04-08T11:29:03.525Z,9.87
2018-04-08T11:31:29.747Z,10.23
2018-04-08T11:33:55.933Z,11.50
2018-04-08T11:36:22.120Z,9.90
2018-04-08T11:38:48.328Z,10.77
2018-04-08T11:41:14.498Z,11.03
2018-04-08T11:43:40.608Z,11.33
2018-04-08T11:46:07.248Z,10.40
2018-04-08T11:48:33.416Z,11.30
2018-04-08T11:51:00.253Z,10.90
2018-04-08T11:53:26.473Z,9.57
2018-04-08T11:55:52.733Z,9.50
2018-04-08T11:58:19.758Z,10.27
2018-04-08T12:00:46.024Z,9.53
2018-04-08T12:03:12.223Z,9.70
2018-04-08T12:05:38.431Z,10.40
2018-04-08T12:08:04.593Z,9.20
2018-04-08T12:10:30.775Z,10.70
2018-04-08T12:12:56.929Z,8.87
2018-04-08T12:15:23.099Z,8.40
2018-04-08T12:17:49.270Z,8.37
2018-04-08T12:20:15.424Z,8.70
2018-04-08T12:22:42.400Z,7.97
2018-04-08T12:25:09.324Z,8.90
2018-04-08T12:27:35.530Z,7.43
2018-04-08T12:30:01.764Z,9.03
2018-04-08T12:32:28.686Z,8.40
2018-04-08T12:34:54.846Z,7.10
2018-04-08T12:37:21.057Z,7.10
2018-04-08T12:39:47.376Z,6.47
2018-04-08T12:42:13.504Z,5.80
2018-04-08T12:44:40.342Z,6.93
2018-04-08T12:47:06.572Z,5.90
2018-04-08T12:49:32.792Z,5.90
2018-04-08T12:51:58.998Z,6.07
2018-04-08T12:54:25.890Z,5.60
2018-04-08T12:56:52.836Z,5.00
2018-04-08T12:59:19.254Z,4.97
2018-04-08T13:01:45.454Z,5.30
2018-04-08T13:04:11.732Z,4.57
2018-04-08T13:06:38.088Z,4.27
2018-04-08T13:09:04.533Z,5.20
2018-04-08T13:11:30.724Z,5.43
2018-04-08T13:13:57.061Z,6.43
2018-04-08T13:16:23.411Z,5.33
2018-04-08T13:18:49.809Z,5.50
2018-04-08T13:21:16.114Z,5.53
2018-04-08T13:23:42.562Z,4.67
2018-04-08T13:26:10.660Z,5.30
2018-04-08T13:28:36.894Z,4.97
2018-04-08T13:31:03.220Z,4.37
2018-04-08T13:33:29.510Z,4.97
2018-04-08T13:35:55.800Z,5.90
2018-04-08T13:38:22.052Z,5.57
2018-04-08T13:40:48.293Z,4.90
2018-04-08T13:43:15.495Z,4.63
2018-04-08T13:45:41.834Z,6.00
2018-04-08T13:48:08.180Z,4.10
2018-04-08T13:50:34.489Z,3.83
2018-04-08T13:53:00.829Z,4.43
2018-04-08T13:55:27.182Z,4.07
2018-04-08T13:57:53.538Z,3.50
2018-04-08T14:00:22.008Z,4.60
2018-04-08T14:02:49.280Z,4.83
2018-04-08T14:05:17.041Z,4.43
2018-04-08T14:07:44.700Z,4.10
2018-04-08T14:10:11.132Z,4.90
2018-04-08T14:12:38.016Z,3.57
2018-04-08T14:15:05.023Z,3.97
2018-04-08T14:17:31.716Z,3.70
2018-04-08T14:20:16.921Z,3.80
2018-04-08T14:22:46.916Z,4.17
2018-04-08T14:25:27.194Z,3.90
2018-04-08T14:28:04.598Z,4.10
2018-04-08T14:30:32.020Z,3.07
2018-04-08T14:33:00.210Z,3.60
2018-04-08T14:35:27.165Z,3.33
2018-04-08T14:37:54.871Z,4.07
2018-04-08T14:40:21.390Z,3.20
2018-04-08T14:42:48.128Z,3.97
2018-04-08T14:45:14.813Z,4.10
2018-04-08T14:47:42.845Z,3.17
2018-04-08T14:50:10.972Z,3.33
2018-04-08T14:52:37.384Z,2.60
2018-04-08T14:55:04.012Z,3.30
2018-04-08T14:57:30.438Z,3.20
2018-04-08T14:59:58.212Z,3.80
2018-04-08T15:02:24.673Z,3.50
2018-04-08T15:04:51.054Z,3.80
2018-04-08T15:07:26.537Z,3.43
2018-04-08T15:09:53.022Z,3.87
2018-04-08T15:12:20.499Z,3.70
2018-04-08T15:14:46.849Z,3.63
2018-04-08T15:19:51.936Z,3.37
2018-04-08T15:22:18.552Z,3.67
2018-04-08T15:24:56.019Z,4.00
2018-04-08T15:27:22.596Z,3.90
2018-04-08T15:29:49.300Z,3.77
2018-04-08T15:32:16.210Z,4.50
2018-04-08T15:34:42.979Z,4.10
2018-04-08T15:37:10.594Z,3.70
2018-04-08T15:40:13.681Z,3.67
2018-04-08T15:42:40.049Z,4.47
2018-04-08T15:45:06.572Z,4.70
2018-04-08T15:47:33.420Z,4.33
2018-04-08T15:50:00.921Z,4.50
2018-04-08T15:52:28.060Z,4.13
2018-04-08T15:54:55.046Z,4.43
2018-04-08T15:57:21.324Z,4.73
2018-04-08T15:59:47.776Z,4.53
2018-04-08T16:02:14.189Z,4.30
2018-04-08T16:04:56.124Z,4.20
2018-04-08T16:07:22.626Z,4.63
2018-04-08T16:09:48.894Z,6.13
2018-04-08T16:15:46.462Z,6.60
2018-04-08T16:18:14.781Z,8.87
2018-04-08T16:20:41.516Z,5.17
2018-04-08T16:23:07.813Z,4.37
2018-04-08T16:25:34.233Z,5.20
2018-04-08T16:28:00.415Z,4.53
2018-04-08T16:30:29.327Z,5.00
2018-04-08T16:32:56.727Z,5.70
2018-04-08T16:35:23.120Z,19.70
2018-04-08T16:37:54.702Z,15.10
2018-04-08T16:40:21.383Z,5.77
2018-04-08T16:42:47.596Z,5.77
2018-04-08T16:45:13.896Z,5.70
2018-04-08T16:47:41.084Z,5.30
2018-04-08T16:50:08.222Z,3.90
2018-04-08T16:52:34.506Z,3.87
2018-04-08T16:55:02.036Z,4.03
2018-04-08T16:57:41.719Z,4.33
2018-04-08T17:03:34.929Z,4.57
2018-04-08T17:06:07.773Z,4.60
2018-04-08T17:08:42.121Z,3.70
2018-04-08T17:11:10.785Z,5.27
2018-04-08T17:13:36.998Z,4.83
2018-04-08T17:16:03.367Z,4.30
2018-04-08T17:18:30.581Z,3.73
2018-04-08T17:21:13.858Z,3.67
2018-04-08T17:23:40.193Z,3.90
2018-04-08T17:26:06.572Z,3.83
2018-04-08T17:28:32.880Z,3.97
2018-04-08T17:31:02.327Z,4.47
2018-04-08T17:33:28.839Z,4.47
2018-04-08T17:35:55.130Z,3.40
2018-04-08T17:38:40.929Z,4.00
2018-04-08T17:41:07.407Z,4.67
2018-04-08T17:43:35.967Z,3.47
2018-04-08T17:46:02.232Z,3.90
2018-04-08T17:48:28.603Z,3.83
2018-04-08T17:50:54.871Z,3.57
2018-04-08T17:53:21.020Z,3.53
2018-04-08T17:55:47.330Z,4.10
2018-04-08T17:58:25.889Z,3.77
2018-04-08T18:00:58.107Z,4.10
2018-04-08T18:03:24.298Z,3.37
2018-04-08T18:05:50.582Z,3.50
2018-04-08T18:08:16.862Z,3.80
2018-04-08T18:10:43.180Z,4.10
2018-04-08T18:13:45.205Z,4.10
2018-04-08T18:16:12.441Z,3.73
2018-04-08T18:18:39.353Z,5.23
2018-04-08T18:21:05.525Z,5.20
2018-04-08T18:23:32.861Z,5.53
2018-04-08T18:25:59.041Z,6.30
2018-04-08T18:28:26.354Z,6.23
2018-04-08T18:30:53.233Z,6.00
2018-04-08T18:33:19.440Z,5.77
2018-04-08T18:35:46.362Z,6.10
2018-04-08T18:38:12.560Z,6.10
2018-04-08T18:40:38.700Z,5.23
2018-04-08T18:43:04.854Z,5.77
2018-04-08T18:45:31.131Z,5.20
2018-04-08T18:47:57.251Z,5.13
2018-04-08T18:50:23.359Z,6.80
2018-04-08T18:52:49.659Z,7.33
2018-04-08T18:55:15.871Z,9.17
2018-04-08T18:57:42.069Z,10.17
2018-04-08T19:00:08.367Z,9.77
2018-04-08T19:02:34.668Z,9.33
2018-04-08T19:05:00.810Z,7.90
2018-04-08T19:07:26.957Z,8.97
2018-04-08T19:09:55.346Z,7.10
2018-04-08T19:12:21.707Z,8.03
2018-04-08T19:14:53.906Z,7.40
2018-04-08T19:17:26.243Z,6.30
2018-04-08T19:19:52.431Z,6.57
2018-04-08T19:22:18.587Z,6.30
2018-04-08T19:24:44.866Z,7.33
2018-04-08T19:27:17.745Z,7.00
2018-04-08T19:29:43.940Z,10.10
2018-04-08T19:32:10.118Z,7.60
2018-04-08T19:34:37.013Z,7.03
2018-04-08T19:37:03.736Z,6.70
2018-04-08T19:39:30.029Z,6.30
2018-04-08T19:41:56.651Z,5.83
2018-04-08T19:44:23.411Z,7.07
2018-04-08T19:49:59.666Z,4.30
2018-04-08T19:52:25.805Z,4.10
2018-04-08T19:54:52.033Z,5.40
2018-04-08T19:57:18.294Z,4.80
2018-04-08T19:59:44.485Z,4.77
2018-04-08T20:02:11.645Z,4.63
2018-04-08T20:04:37.867Z,5.30
2018-04-08T20:07:04.167Z,4.83
2018-04-08T20:09:30.992Z,4.40
2018-04-08T20:11:57.184Z,4.67
2018-04-08T20:14:23.351Z,5.67
2018-04-08T20:16:49.552Z,4.10
2018-04-08T20:19:16.541Z,4.97
2018-04-08T20:21:42.708Z,5.37
2018-04-08T20:24:08.989Z,4.63
2018-04-08T20:26:35.233Z,5.40
2018-04-08T20:29:01.419Z,5.37
2018-04-08T20:31:27.628Z,4.83
2018-04-08T20:33:53.835Z,4.70
2018-04-08T20:36:20.147Z,5.00
2018-04-08T20:38:46.316Z,5.20
2018-04-08T20:41:12.578Z,5.20
2018-04-08T20:43:39.483Z,4.67
2018-04-08T20:46:05.743Z,5.27
2018-04-08T20:48:31.988Z,5.10
2018-04-08T20:50:58.223Z,5.10
2018-04-08T20:53:24.403Z,5.10
2018-04-08T20:55:50.576Z,5.37
2018-04-08T20:58:16.781Z,5.40
2018-04-08T21:00:42.964Z,5.50
2018-04-08T21:03:09.147Z,5.60
2018-04-08T21:05:35.279Z,5.53
2018-04-08T21:08:02.401Z,5.20
2018-04-08T21:10:28.663Z,5.30
2018-04-08T21:12:54.808Z,5.20
2018-04-08T21:15:21.135Z,6.40
2018-04-08T21:17:47.270Z,5.70
2018-04-08T21:20:13.484Z,5.60
2018-04-08T21:22:39.729Z,5.30
2018-04-08T21:25:05.915Z,6.07
2018-04-08T21:27:32.070Z,5.43
2018-04-08T21:29:58.266Z,5.30
2018-04-08T21:32:24.461Z,5.77
2018-04-08T21:34:50.691Z,5.40
2018-04-08T21:37:16.949Z,5.37
2018-04-08T21:39:43.297Z,5.37
2018-04-08T21:42:09.471Z,5.30
2018-04-08T21:44:35.677Z,5.53
2018-04-08T21:47:02.756Z,4.93
2018-04-08T21:49:28.935Z,5.10
2018-04-08T21:51:55.243Z,5.20
2018-04-08T21:54:21.424Z,5.53
2018-04-08T21:56:47.548Z,5.20
2018-04-08T21:59:13.673Z,6.50
2018-04-08T22:01:39.816Z,6.13
2018-04-08T22:04:06.706Z,5.40
2018-04-08T22:06:32.895Z,5.90
2018-04-08T22:08:59.091Z,6.00
2018-04-08T22:11:25.227Z,6.80
2018-04-08T22:13:51.409Z,6.37
2018-04-08T22:16:17.640Z,5.70
2018-04-08T22:18:44.942Z,5.83
2018-04-08T22:21:11.123Z,6.10
2018-04-08T22:23:37.275Z,6.80
2018-04-08T22:26:03.383Z,5.97
2018-04-08T22:28:29.553Z,6.20
2018-04-08T22:30:55.704Z,6.20
2018-04-08T22:33:22.059Z,6.33
2018-04-08T22:35:48.698Z,6.77
2018-04-08T22:38:14.835Z,6.40
2018-04-08T22:40:40.984Z,6.10
2018-04-08T22:43:12.791Z,6.17
2018-04-08T22:45:39.960Z,6.80
2018-04-08T22:48:06.153Z,5.93
2018-04-08T22:50:32.318Z,6.30
2018-04-08T22:52:58.474Z,6.40
2018-04-08T22:55:25.502Z,6.87
2018-04-08T22:57:52.512Z,6.90
2018-04-08T23:00:24.932Z,6.93
2018-04-08T23:02:51.087Z,6.60
2018-04-08T23:05:18.258Z,6.77
2018-04-08T23:07:44.416Z,6.13
2018-04-08T23:10:10.674Z,7.20
2018-04-08T23:12:37.003Z,5.93
2018-04-08T23:15:03.181Z,6.90
2018-04-08T23:17:29.320Z,5.63
2018-04-08T23:19:55.520Z,6.77
2018-04-08T23:22:21.681Z,6.90
2018-04-08T23:24:48.017Z,5.63
2018-04-08T23:27:14.255Z,7.17
2018-04-08T23:29:41.168Z,6.80
2018-04-08T23:32:09.427Z,6.90
2018-04-08T23:34:35.694Z,6.60
2018-04-08T23:37:02.572Z,6.93
2018-04-08T23:39:29.439Z,6.80
2018-04-08T23:41:55.608Z,5.00
2018-04-08T23:44:22.575Z,6.30
2018-04-08T23:46:48.784Z,6.67
2018-04-08T23:49:14.917Z,6.20
2018-04-08T23:51:41.127Z,7.23
2018-04-08T23:54:08.111Z,7.10
2018-04-08T23:56:34.367Z,7.30
2018-04-08T23:59:01.112Z,6.37
